• Join FlightAware (Why Join?)
  • Login
  • US Flag 
09:18AM EDT


 

Airport Tracker/Info


-or-


 

Live Flight TrackerFlight Track Log ✈ SEJ23 ✈ 30-Apr-2014 ✈ VOMD / IXM - OMDB / DXB

Flight Track Log - Related Links

Times and Time Zones

All times are in EDT time to prevent confusion due to time zone crossing. See the SEJ23 flight status page for this flight to view local times or setup timezone preferences in your user account.

Time Position Orientation Groundspeed Altitude Reporting Facility
EDT Latitude Longitude Course Direction KTS MPH feet Rate Location/Type
10:01AM 10.0433 77.8266 308° West  Level Estimated
10:02AM 10.1129 77.7376 308° West  Level Estimated
10:03AM 10.1824 77.6486 308° West  Level Estimated
10:04AM 10.2519 77.5595 308° West  Level Estimated
10:05AM 10.3214 77.4704 308° West  Level Estimated
10:06AM 10.3908 77.3812 308° West  Level Estimated
10:07AM 10.4603 77.2920 308° West  Level Estimated
10:08AM 10.5297 77.2028 308° West  Level Estimated
10:08AM 10.4699 77.0474 302° West 445 512 26,300  Level FlightAware ADS-B (VOYK)
10:09AM 10.5310 76.9477 302° West 454 522 27,400 1,080 Climbing FlightAware ADS-B (VOYK)
10:09AM 10.5316 76.9466 302° West 458 527 27,800 1,020 Climbing FlightAware ADS-B (VOYK)
10:10AM 10.6011 76.8330 302° West 460 529 28,500 1,020 Climbing FlightAware ADS-B (VOYK)
10:10AM 10.6351 76.7770 302° West 470 541 29,000 1,020 Climbing FlightAware ADS-B (VOYK)
10:11AM 10.6731 76.7148 302° West 470 541 29,600 1,260 Climbing FlightAware ADS-B (VOYK)
10:11AM 10.7123 76.6505 302° West 468 539 30,400 1,380 Climbing FlightAware ADS-B (VOYK)
10:12AM 10.7467 76.5942 302° West 462 532 31,100 1,380 Climbing FlightAware ADS-B (VOYK)
10:12AM 10.7804 76.5387 302° West 459 528 31,800 1,260 Climbing FlightAware ADS-B (VOYK)
10:13AM 10.8141 76.4830 302° West 461 531 32,400 1,260 Climbing FlightAware ADS-B (VOYK)
10:13AM 10.8475 76.4276 302° West 456 525 33,100 1,440 Climbing FlightAware ADS-B (VOYK)
10:14AM 10.8737 76.3948 316° Northwest 461 531 33,600 1,320 Climbing FlightAware ADS-B (VOYK)
10:14AM 10.9211 76.3496 317° Northwest 457 526 34,200 960 Climbing FlightAware ADS-B (VOYK)
10:15AM 10.9672 76.3059 317° Northwest 459 528 34,600 660 Climbing FlightAware ADS-B (VOYK)
10:15AM 11.0145 76.2613 318° Northwest 464 534 34,900 840 Climbing FlightAware ADS-B (VOYK)
10:16AM 11.0619 76.2168 317° Northwest 462 532 35,500 1,200 Climbing FlightAware ADS-B (VOYK)
10:16AM 11.1088 76.1731 318° Northwest 458 527 36,100 1,080 Climbing FlightAware ADS-B (VOYK)
10:17AM 11.1489 76.1363 318° Northwest 456 525 36,500 900 Climbing FlightAware ADS-B (VOYK)
10:19AM 11.2881 75.9577 308° West  Level Estimated
10:20AM 11.3577 75.8684 308° West  Level Estimated
10:21AM 11.4272 75.7790 308° West  Level Estimated
10:22AM 11.4967 75.6895 308° West  Level Estimated
10:23AM 11.5662 75.6000 308° West  Level Estimated
10:24AM 11.6357 75.5105 308° West  Level Estimated
10:25AM 11.7051 75.4209 308° West  Level Estimated
10:26AM 11.7745 75.3313 308° West  Level Estimated
10:27AM 11.8439 75.2416 308° West  Level Estimated
10:28AM 11.9133 75.1519 308° West  Level Estimated
10:29AM 11.9826 75.0622 308° West  Level Estimated
10:30AM 12.0519 74.9724 308° West  Level Estimated
10:31AM 12.1212 74.8825 308° West  Level Estimated
10:32AM 12.1904 74.7926 308° West  Level Estimated
10:33AM 12.2596 74.7027 308° West  Level Estimated
10:34AM 12.3288 74.6127 308° West  Level Estimated
10:35AM 12.3979 74.5226 308° West  Level Estimated
10:36AM 12.4670 74.4325 308° West  Level Estimated
10:37AM 12.5361 74.3424 308° West  Level Estimated
10:38AM 12.6052 74.2522 308° West  Level Estimated
10:39AM 12.6742 74.1620 308° West  Level Estimated
10:40AM 12.7432 74.0717 308° West  Level Estimated
10:41AM 12.8122 73.9814 308° West  Level Estimated
10:42AM 12.8811 73.8910 308° West  Level Estimated
10:43AM 12.9500 73.8006 308° West  Level Estimated
10:44AM 13.0189 73.7101 308° West  Level Estimated
10:45AM 13.0877 73.6196 308° West  Level Estimated
10:46AM 13.1566 73.5290 308° West  Level Estimated
10:47AM 13.2253 73.4383 308° West  Level Estimated
10:48AM 13.2941 73.3477 308° West  Level Estimated
10:49AM 13.3628 73.2569 308° West  Level Estimated
10:50AM 13.4315 73.1662 308° West  Level Estimated
10:51AM 13.5001 73.0753 308° West  Level Estimated
10:52AM 13.5687 72.9844 308° West  Level Estimated
10:53AM 13.6373 72.8935 308° West  Level Estimated
10:54AM 13.7059 72.8025 308° West  Level Estimated
10:55AM 13.7744 72.7114 308° West  Level Estimated
10:56AM 13.8429 72.6203 308° West  Level Estimated
10:57AM 13.9113 72.5292 308° West  Level Estimated
10:58AM 13.9797 72.4380 308° West  Level Estimated
10:59AM 14.0481 72.3467 308° West  Level Estimated
11:00AM 14.1165 72.2554 308° West  Level Estimated
11:01AM 14.1848 72.1640 308° West  Level Estimated
11:02AM 14.2531 72.0726 308° West  Level Estimated
11:03AM 14.3213 71.9811 308° West  Level Estimated
11:04AM 14.3895 71.8896 308° West  Level Estimated
11:05AM 14.4577 71.7980 308° West  Level Estimated
11:06AM 14.5259 71.7063 308° West  Level Estimated
11:07AM 14.5940 71.6146 308° West  Level Estimated
11:08AM 14.6620 71.5228 307° West  Level Estimated
11:09AM 14.7301 71.4310 307° West  Level Estimated
11:10AM 14.7980 71.3391 307° West  Level Estimated
11:11AM 14.8660 71.2472 307° West  Level Estimated
11:12AM 14.9339 71.1552 307° West  Level Estimated
11:13AM 15.0018 71.0631 307° West  Level Estimated
11:14AM 15.0697 70.9710 307° West  Level Estimated
11:15AM 15.1375 70.8789 307° West  Level Estimated
11:16AM 15.2052 70.7866 307° West  Level Estimated
11:17AM 15.2730 70.6944 307° West  Level Estimated
11:18AM 15.3407 70.6020 307° West  Level Estimated
11:19AM 15.4083 70.5096 307° West  Level Estimated
11:20AM 15.4760 70.4171 307° West  Level Estimated
11:21AM 15.5436 70.3246 307° West  Level Estimated
11:22AM 15.6111 70.2320 307° West  Level Estimated
11:23AM 15.6786 70.1394 307° West  Level Estimated
11:24AM 15.7461 70.0467 307° West  Level Estimated
11:25AM 15.8135 69.9539 307° West  Level Estimated
11:26AM 15.8809 69.8611 307° West  Level Estimated
11:27AM 15.9482 69.7682 307° West  Level Estimated
11:28AM 16.0156 69.6752 307° West  Level Estimated
11:29AM 16.0828 69.5822 307° West  Level Estimated
11:30AM 16.1501 69.4891 307° West  Level Estimated
11:31AM 16.2173 69.3959 307° West  Level Estimated
11:32AM 16.2844 69.3027 307° West  Level Estimated
11:33AM 16.3515 69.2094 307° West  Level Estimated
11:34AM 16.4186 69.1161 307° West  Level Estimated
11:35AM 16.4856 69.0227 307° West  Level Estimated
11:36AM 16.5526 68.9292 307° West  Level Estimated
11:37AM 16.6195 68.8357 307° West  Level Estimated
11:38AM 16.6864 68.7421 307° West  Level Estimated
11:39AM 16.7533 68.6484 307° West  Level Estimated
11:40AM 16.8201 68.5547 307° West  Level Estimated
11:41AM 16.8869 68.4609 307° West  Level Estimated
11:42AM 16.9536 68.3671 307° West  Level Estimated
11:43AM 17.0203 68.2731 307° West  Level Estimated
11:44AM 17.0869 68.1791 307° West  Level Estimated
11:45AM 17.1535 68.0851 307° West  Level Estimated
11:46AM 17.2201 67.9909 307° West  Level Estimated
11:47AM 17.2866 67.8967 306° West  Level Estimated
11:48AM 17.3531 67.8025 306° West  Level Estimated
11:49AM 17.4195 67.7081 306° West  Level Estimated
11:50AM 17.4859 67.6137 306° West  Level Estimated
11:51AM 17.5522 67.5192 306° West  Level Estimated
11:52AM 17.6185 67.4247 306° West  Level Estimated
11:53AM 17.6848 67.3301 306° West  Level Estimated
11:54AM 17.7510 67.2354 306° West  Level Estimated
11:55AM 17.8171 67.1407 306° West  Level Estimated
11:56AM 17.8832 67.0459 306° West  Level Estimated
11:57AM 17.9493 66.9510 306° West  Level Estimated
11:58AM 18.0153 66.8560 306° West  Level Estimated
11:59AM 18.0813 66.7610 306° West  Level Estimated
12:00PM 18.1472 66.6658 306° West  Level Estimated
12:01PM 18.2131 66.5707 306° West  Level Estimated
12:02PM 18.2789 66.4754 306° West  Level Estimated
12:03PM 18.3447 66.3801 306° West  Level Estimated
12:04PM 18.4104 66.2847 306° West  Level Estimated
12:05PM 18.4761 66.1892 306° West  Level Estimated
12:06PM 18.5418 66.0937 306° West  Level Estimated
12:07PM 18.6074 65.9981 306° West  Level Estimated
12:08PM 18.6729 65.9024 306° West  Level Estimated
12:09PM 18.7384 65.8066 306° West  Level Estimated
12:10PM 18.8039 65.7108 306° West  Level Estimated
12:11PM 18.8693 65.6149 306° West  Level Estimated
12:12PM 18.9346 65.5189 306° West  Level Estimated
12:13PM 18.9999 65.4229 306° West  Level Estimated
12:14PM 19.0652 65.3267 306° West  Level Estimated
12:15PM 19.1304 65.2305 306° West  Level Estimated
12:16PM 19.1955 65.1342 306° West  Level Estimated
12:17PM 19.2606 65.0378 306° West  Level Estimated
12:18PM 19.3257 64.9414 306° West  Level Estimated
12:19PM 19.3907 64.8449 306° West  Level Estimated
12:20PM 19.4556 64.7483 306° West  Level Estimated
12:21PM 19.5205 64.6516 305° West  Level Estimated
12:22PM 19.5854 64.5549 305° West  Level Estimated
12:23PM 19.6502 64.4581 305° West  Level Estimated
12:24PM 19.7149 64.3612 305° West  Level Estimated
12:25PM 19.7796 64.2642 305° West  Level Estimated
12:26PM 19.8442 64.1671 305° West  Level Estimated
12:27PM 19.9088 64.0700 305° West  Level Estimated
12:28PM 19.9734 63.9727 305° West  Level Estimated
12:29PM 20.0378 63.8754 305° West  Level Estimated
12:30PM 20.1023 63.7781 305° West  Level Estimated
12:31PM 20.1666 63.6806 305° West  Level Estimated
12:32PM 20.2310 63.5831 305° West  Level Estimated
12:33PM 20.2952 63.4854 305° West  Level Estimated
12:34PM 20.3594 63.3877 305° West  Level Estimated
12:35PM 20.4236 63.2900 305° West  Level Estimated
12:36PM 20.4877 63.1921 305° West  Level Estimated
12:37PM 20.5518 63.0941 305° West  Level Estimated
12:38PM 20.6157 62.9961 305° West  Level Estimated
12:39PM 20.6797 62.8980 305° West  Level Estimated
12:40PM 20.7436 62.7998 305° West  Level Estimated
12:41PM 20.8074 62.7015 305° West  Level Estimated
12:42PM 20.8712 62.6032 305° West  Level Estimated
12:43PM 20.9349 62.5047 305° West  Level Estimated
12:44PM 20.9985 62.4062 305° West  Level Estimated
12:45PM 21.0621 62.3076 305° West  Level Estimated
12:46PM 21.1257 62.2089 305° West  Level Estimated
12:47PM 21.1892 62.1101 305° West  Level Estimated
12:48PM 21.2526 62.0112 305° West  Level Estimated
12:49PM 21.3160 61.9123 305° West  Level Estimated
12:50PM 21.3793 61.8133 304° West  Level Estimated
12:51PM 21.4425 61.7141 304° West  Level Estimated
12:52PM 21.5057 61.6149 304° West  Level Estimated
12:53PM 21.5689 61.5156 304° West  Level Estimated
12:54PM 21.6319 61.4163 304° West  Level Estimated
12:55PM 21.6950 61.3168 304° West  Level Estimated
12:56PM 21.7579 61.2172 304° West  Level Estimated
12:57PM 21.8208 61.1176 304° West  Level Estimated
12:58PM 21.8837 61.0179 304° West  Level Estimated
12:59PM 21.9464 60.9180 304° West  Level Estimated
01:00PM 22.0092 60.8181 304° West  Level Estimated
01:01PM 22.0718 60.7182 304° West  Level Estimated
01:02PM 22.1344 60.6181 304° West  Level Estimated
01:03PM 22.1970 60.5179 304° West  Level Estimated
01:04PM 22.2595 60.4176 304° West  Level Estimated
01:05PM 22.3219 60.3173 304° West  Level Estimated
01:06PM 22.3842 60.2169 304° West  Level Estimated
01:07PM 22.4465 60.1163 304° West  Level Estimated
01:08PM 22.5087 60.0157 304° West  Level Estimated
01:09PM 22.5709 59.9150 304° West  Level Estimated
01:10PM 22.6330 59.8142 304° West  Level Estimated
01:11PM 22.6950 59.7133 304° West  Level Estimated
01:12PM 22.7570 59.6123 304° West  Level Estimated
01:13PM 22.8189 59.5112 304° West  Level Estimated
01:14PM 22.8808 59.4101 304° West  Level Estimated
01:15PM 22.9426 59.3088 304° West  Level Estimated
01:16PM 23.0043 59.2075 304° West  Level Estimated
01:17PM 23.0660 59.1060 303° West  Level Estimated
01:18PM 23.1276 59.0045 303° West  Level Estimated
01:19PM 23.1891 58.9029 303° West  Level Estimated
01:20PM 23.2505 58.8011 303° West  Level Estimated
01:21PM 23.3119 58.6993 303° West  Level Estimated
01:22PM 23.3733 58.5974 303° West  Level Estimated
01:23PM 23.4345 58.4954 303° West  Level Estimated
01:24PM 23.4957 58.3933 303° West  Level Estimated
01:25PM 23.5569 58.2911 303° West  Level Estimated
01:26PM 23.6179 58.1888 303° West  Level Estimated
01:27PM 23.6789 58.0864 303° West  Level Estimated
01:28PM 23.7399 57.9839 303° West  Level Estimated
01:29PM 23.8007 57.8814 303° West  Level Estimated
01:30PM 23.8615 57.7787 303° West  Level Estimated
01:31PM 23.9223 57.6759 303° West  Level Estimated
01:32PM 23.9829 57.5730 303° West  Level Estimated
01:33PM 24.0435 57.4701 303° West  Level Estimated
01:34PM 24.1040 57.3670 303° West  Level Estimated
01:35PM 24.1645 57.2639 303° West  Level Estimated
01:36PM 24.2248 57.1606 303° West  Level Estimated
01:37PM 24.2852 57.0573 303° West  Level Estimated
01:38PM 24.3454 56.9538 303° West  Level Estimated
01:39PM 24.4056 56.8503 303° West  Level Estimated
01:40PM 24.4657 56.7466 303° West  Level Estimated
01:41PM 24.5257 56.6428 302° West  Level Estimated
01:42PM 24.5857 56.5390 302° West  Level Estimated
01:43PM 24.6456 56.4351 302° West  Level Estimated
01:44PM 24.7054 56.3310 302° West  Level Estimated
01:45PM 24.7651 56.2269 302° West  Level Estimated
01:46PM 24.8248 56.1226 302° West  Level Estimated
01:47PM 24.8844 56.0183 302° West  Level Estimated
01:48PM 24.9439 55.9138 302° West  Level Estimated
01:49PM 25.0034 55.8093 302° West  Level Estimated
01:50PM 25.0628 55.7046 302° West  Level Estimated
01:51PM 25.1221 55.5999 302° West  Level Estimated
01:52PM 25.1813 55.4950 302° West  Level Estimated
01:53PM 25.2405 55.3901 302° West  Level Estimated
01:54PM 25.2550 55.3643 302° West  Level Estimated
01:55PM 25.2550 55.3643 North  Level Estimated
01:56PM 25.2550 55.3643 North  Level Estimated
01:57PM 25.2550 55.3643 North  Level Estimated
01:58PM 25.2550 55.3643 North  Level Estimated
01:59PM 25.2550 55.3643 North  Level Estimated
02:00PM 25.2550 55.3643 North  Level Estimated
02:01PM 25.2550 55.3643 North  Level Estimated
02:02PM 25.2550 55.3643 North  Level Estimated
02:03PM 25.2550 55.3643 North  Level Estimated
02:04PM 25.2550 55.3643 North  Level Estimated
02:05PM 25.2550 55.3643 North  Level Estimated
02:06PM 25.2550 55.3643 North  Level Estimated
02:07PM 25.2550 55.3643 North  Level Estimated
02:08PM 25.2550 55.3643 North  Level Estimated
02:09PM 25.2550 55.3643 North  Level Estimated
02:10PM 25.2550 55.3643 North  Level Estimated
02:11PM 25.2550 55.3643 North  Level Estimated